Schedule Details


Flight Number: CTN443
Departure: Schwechat (LOWW) at 19:45
Arrival: Franjo Tudman (LDZA) at 20:40
Route: SASAL?DCT?SUNIS?DCT?PETOV

Weather Information
LOWW 072250Z 26005KT CAVOK 22/17 Q1020 NOSIG
LDZA 072300Z 26003KT CAVOK 19/18 Q1018 NOSIG
Schedule Frequency

Route Map